Alberta, Alabama
Current Conditions -  °F | °C
As of 2:35 PM on Friday 19 Dec 2014 (Local Time) from KSEM Reporting Station
Clear Clear  
Wind Chill: 54°   Ceiling: Unl
Heat Index: 54°   Visibility: 10mi
Dew Point: 36°   Wind: 8mph
Humidity: 51%   Direction: 40°NE
Pressure: 30.1"   Gusts: NA
Location:  32.23°N, 87.41°W
Report Text: KSEM 192035Z AUTO 04007KT 010V070 10SM CLR 12/02 A3010 RMK AO2
Loading
Personal Weather Stations






























Interactive Weather Map New forecast layout! Learn more

10-Day Weather Forecast

Advertisements
Track Severe Weather on mobile